Time;durP1;ratioP1;P1;durP2;ratioP2;P2;SDS_P1;SDS_P2;PMS_P1;PMS_P2;Temp;Humidity;BMP_temperature;BMP_pressure;BME280_temperature;BME280_humidity;BME280_pressure;Samples;Min_cycle;Max_cycle;Signal;HPM_P1;HPM_P2
2021/09/16 00:02:36;;;;;;;32.45;21.15;;;;;;;19.90;100.00;98804.74;4305748;80;28475;-80
2021/09/16 00:08:37;;;;;;;36.77;22.40;;;;;;;19.94;100.00;98803.05;4317305;81;28898;-81
2021/09/16 00:14:39;;;;;;;32.90;20.85;;;;;;;19.86;100.00;98797.70;4296411;79;28504;-80
2021/09/16 00:20:40;;;;;;;34.80;21.27;;;;;;;19.88;100.00;98789.23;4316295;81;28491;-81
2021/09/16 00:26:41;;;;;;;32.33;21.68;;;;;;;19.83;100.00;98788.77;4304228;81;28488;-80
2021/09/16 00:32:42;;;;;;;36.00;22.05;;;;;;;19.65;100.00;98791.23;4307138;81;28469;-80
2021/09/16 00:38:44;;;;;;;34.45;21.10;;;;;;;19.86;100.00;98786.00;4184452;83;28454;-81
2021/09/16 00:44:46;;;;;;;38.02;21.75;;;;;;;19.78;100.00;98784.75;4325918;81;28488;-80
2021/09/16 00:50:47;;;;;;;35.38;23.05;;;;;;;19.87;100.00;98782.16;4303877;81;28469;-80
2021/09/16 00:56:50;;;;;;;33.53;21.80;;;;;;;19.88;100.00;98781.05;4325019;81;28459;-81
2021/09/16 01:02:52;;;;;;;38.23;23.77;;;;;;;19.73;100.00;98776.67;4233581;82;28483;-80
2021/09/16 01:08:53;;;;;;;37.08;23.87;;;;;;;19.73;100.00;98789.77;4243710;82;28520;-78
2021/09/16 01:14:55;;;;;;;34.27;21.48;;;;;;;19.77;100.00;98786.68;4250207;82;28498;-79
2021/09/16 01:20:56;;;;;;;42.98;29.35;;;;;;;19.94;100.00;98789.41;4239214;82;28520;-79
2021/09/16 01:26:57;;;;;;;57.20;41.88;;;;;;;19.91;100.00;98774.45;4209218;82;28684;-79
2021/09/16 01:33:00;;;;;;;63.95;39.20;;;;;;;19.90;100.00;98772.01;4220351;82;28485;-78
2021/09/16 01:39:05;;;;;;;56.58;40.73;;;;;;;19.66;100.00;98779.78;4218267;82;28504;-79
2021/09/16 01:45:14;;;;;;;43.90;30.23;;;;;;;19.75;100.00;98775.81;4233453;82;28456;-80
2021/09/16 01:51:15;;;;;;;39.53;26.23;;;;;;;19.76;100.00;98769.24;4120982;85;28455;-80
2021/09/16 01:57:17;;;;;;;43.75;28.27;;;;;;;19.99;100.00;98764.78;4121793;84;28481;-80
2021/09/16 02:03:18;;;;;;;45.00;29.12;;;;;;;20.00;100.00;98758.22;4148524;83;28528;-80
2021/09/16 02:09:19;;;;;;;41.60;27.55;;;;;;;19.83;100.00;98767.48;4193206;83;28476;-79
2021/09/16 02:15:21;;;;;;;40.10;26.00;;;;;;;19.96;100.00;98758.58;4183446;83;28501;-79
2021/09/16 02:21:23;;;;;;;44.20;28.55;;;;;;;19.90;100.00;98752.91;4182921;83;28612;-80
2021/09/16 02:27:24;;;;;;;39.38;27.25;;;;;;;20.06;100.00;98746.65;4188071;83;28503;-79
2021/09/16 02:33:25;;;;;;;46.55;29.50;;;;;;;20.06;100.00;98745.28;4163555;83;28497;-78
2021/09/16 02:39:26;;;;;;;44.23;29.12;;;;;;;20.08;100.00;98747.72;4199578;83;28472;-80
2021/09/16 02:45:28;;;;;;;45.58;29.05;;;;;;;19.95;100.00;98744.68;4198173;83;28529;-79
2021/09/16 02:51:29;;;;;;;47.67;30.10;;;;;;;19.97;100.00;98743.82;4215773;83;28498;-78
2021/09/16 02:57:30;;;;;;;42.67;28.32;;;;;;;19.92;100.00;98736.50;4208498;84;28450;-79
2021/09/16 03:03:32;;;;;;;43.80;29.37;;;;;;;19.90;100.00;98732.45;4212398;83;28489;-79
2021/09/16 03:09:33;;;;;;;42.08;27.62;;;;;;;19.88;100.00;98738.77;4189840;83;28510;-81
2021/09/16 03:15:34;;;;;;;37.95;23.18;;;;;;;19.92;100.00;98734.32;4199162;83;28457;-80
2021/09/16 03:21:36;;;;;;;33.73;22.05;;;;;;;20.07;100.00;98735.98;4192503;83;28510;-81
2021/09/16 03:27:37;;;;;;;39.88;24.27;;;;;;;20.08;100.00;98729.41;4176768;83;28493;-82
2021/09/16 03:33:39;;;;;;;35.30;25.23;;;;;;;20.12;100.00;98729.08;4222515;83;28530;-81
2021/09/16 03:39:40;;;;;;;37.53;24.98;;;;;;;19.98;100.00;98724.97;4201750;83;28513;-80
2021/09/16 03:45:41;;;;;;;39.00;23.12;;;;;;;19.98;100.00;98731.80;4199368;83;28494;-80
2021/09/16 03:51:43;;;;;;;37.65;23.80;;;;;;;20.00;100.00;98736.96;4340758;81;28503;-80
2021/09/16 03:57:44;;;;;;;34.50;22.80;;;;;;;20.10;100.00;98731.85;4301687;83;28469;-80
2021/09/16 04:03:45;;;;;;;33.20;22.32;;;;;;;19.90;100.00;98739.27;4303116;81;28559;-80
2021/09/16 04:09:47;;;;;;;33.35;22.52;;;;;;;19.94;100.00;98727.23;4336499;82;28530;-81
2021/09/16 04:15:48;;;;;;;35.38;22.85;;;;;;;20.04;100.00;98716.92;4291914;83;28469;-81
2021/09/16 04:21:49;;;;;;;37.80;22.42;;;;;;;20.04;100.00;98721.02;4301867;83;28505;-79
2021/09/16 04:27:50;;;;;;;33.85;21.27;;;;;;;19.99;100.00;98725.22;4381308;81;28455;-80
2021/09/16 04:33:52;;;;;;;35.33;22.17;;;;;;;20.02;100.00;98730.64;4346298;81;28485;-80
2021/09/16 04:39:53;;;;;;;30.70;20.90;;;;;;;20.04;100.00;98734.66;4376200;80;28484;-79
2021/09/16 04:45:54;;;;;;;33.98;22.13;;;;;;;20.18;100.00;98738.77;4386070;80;28524;-83
2021/09/16 04:51:55;;;;;;;36.13;22.02;;;;;;;20.21;100.00;98731.91;4433839;80;28504;-81
2021/09/16 04:57:57;;;;;;;31.48;21.10;;;;;;;20.21;100.00;98741.45;4399371;79;28530;-80
2021/09/16 05:03:58;;;;;;;29.70;20.60;;;;;;;20.33;100.00;98736.88;4385547;80;28954;-80
2021/09/16 05:09:59;;;;;;;34.40;20.48;;;;;;;20.46;100.00;98733.31;4350965;81;28457;-83
2021/09/16 05:16:01;;;;;;;28.90;19.98;;;;;;;20.51;100.00;98737.87;4261210;82;28447;-81
2021/09/16 05:22:03;;;;;;;34.83;21.35;;;;;;;20.64;100.00;98736.78;4238170;82;28468;-81
2021/09/16 05:28:04;;;;;;;32.28;21.93;;;;;;;20.79;100.00;98745.20;4415214;80;28459;-82
2021/09/16 05:34:06;;;;;;;34.30;21.60;;;;;;;20.66;100.00;98744.11;4331380;81;28477;-82
2021/09/16 05:40:08;;;;;;;32.70;20.95;;;;;;;20.80;100.00;98753.11;4311183;82;28503;-82
2021/09/16 05:46:09;;;;;;;29.72;20.30;;;;;;;20.98;100.00;98751.37;4311149;82;28496;-82
2021/09/16 05:52:11;;;;;;;32.23;21.00;;;;;;;21.26;100.00;98744.46;4311614;81;28429;-83
2021/09/16 05:58:12;;;;;;;31.80;22.15;;;;;;;21.27;100.00;98740.61;4311473;82;28493;-83
2021/09/16 06:04:13;;;;;;;33.42;23.15;;;;;;;21.61;100.00;98745.27;4284283;81;28548;-84
2021/09/16 06:10:15;;;;;;;38.13;23.27;;;;;;;21.82;100.00;98747.52;4271211;83;28463;-84
2021/09/16 06:16:16;;;;;;;35.28;23.90;;;;;;;22.02;100.00;98747.53;4272680;83;28446;-83
2021/09/16 06:22:18;;;;;;;32.38;21.55;;;;;;;22.22;100.00;98742.05;4271248;83;28477;-83
2021/09/16 06:28:22;;;;;;;34.80;21.73;;;;;;;22.43;100.00;98745.58;4270947;83;28512;-84
2021/09/16 06:34:32;;;;;;;37.78;22.17;;;;;;;22.57;100.00;98756.45;4268524;83;28526;-86
2021/09/16 06:40:34;;;;;;;38.60;23.77;;;;;;;22.81;100.00;98749.75;4135365;86;28454;-84
2021/09/16 06:46:35;;;;;;;31.87;22.00;;;;;;;22.98;100.00;98754.44;4238136;84;28485;-84
2021/09/16 06:52:38;;;;;;;36.42;23.73;;;;;;;23.17;100.00;98747.27;4238676;84;28497;-83
2021/09/16 06:58:39;;;;;;;32.05;21.87;;;;;;;23.33;100.00;98760.53;4237126;83;28469;-83
2021/09/16 07:04:41;;;;;;;37.23;21.75;;;;;;;23.23;100.00;98766.55;4231039;82;28517;-84
2021/09/16 07:10:42;;;;;;;34.27;19.40;;;;;;;23.49;100.00;98775.93;4343188;82;28483;-85
2021/09/16 07:16:43;;;;;;;35.13;19.77;;;;;;;23.76;100.00;98771.19;4349004;81;28528;-83
2021/09/16 07:22:45;;;;;;;27.50;17.67;;;;;;;23.78;100.00;98766.17;4208502;82;28455;-84
2021/09/16 07:28:46;;;;;;;28.25;16.40;;;;;;;23.91;100.00;98776.73;4150196;86;28499;-87
2021/09/16 07:34:47;;;;;;;29.35;15.32;;;;;;;24.01;100.00;98777.75;4237831;84;28496;-87
2021/09/16 07:40:49;;;;;;;22.40;15.50;;;;;;;24.09;100.00;98763.23;4277674;81;28495;-85
2021/09/16 07:46:50;;;;;;;26.15;14.65;;;;;;;24.29;100.00;98773.80;4291089;81;28553;-84
2021/09/16 07:52:52;;;;;;;21.30;14.70;;;;;;;24.54;100.00;98772.07;4262191;81;28441;-83
2021/09/16 07:58:53;;;;;;;22.62;14.98;;;;;;;24.46;100.00;98776.48;4192279;84;28482;-85
2021/09/16 08:04:56;;;;;;;23.05;15.65;;;;;;;24.85;100.00;98777.03;4160079;84;28549;-84
2021/09/16 08:10:58;;;;;;;23.80;14.98;;;;;;;25.11;100.00;98786.48;4316553;82;28554;-84
2021/09/16 08:17:03;;;;;;;25.60;16.10;;;;;;;24.97;100.00;98779.86;4346791;82;28515;-84
2021/09/16 08:23:05;;;;;;;26.05;16.57;;;;;;;25.16;100.00;98786.27;4347115;82;28530;-83
2021/09/16 08:29:06;;;;;;;19.42;13.32;;;;;;;25.23;100.00;98793.19;4391767;81;28488;-84
2021/09/16 08:35:09;;;;;;;19.87;13.62;;;;;;;25.00;100.00;98790.77;4399338;81;28487;-85
2021/09/16 08:41:11;;;;;;;20.32;13.78;;;;;;;25.00;100.00;98797.64;4399988;81;28450;-84
2021/09/16 08:47:14;;;;;;;20.90;12.47;;;;;;;25.29;100.00;98804.20;4399558;81;28549;-83
2021/09/16 08:53:23;;;;;;;18.57;12.65;;;;;;;25.70;100.00;98800.42;4353667;81;28572;-80
2021/09/16 08:59:25;;;;;;;17.57;11.18;;;;;;;26.07;100.00;98804.63;4390901;81;28507;-81
2021/09/16 09:05:29;;;;;;;14.07;10.72;;;;;;;26.31;95.04;98799.77;4356720;81;28459;-84
2021/09/16 09:11:30;;;;;;;14.85;10.38;;;;;;;26.36;98.71;98801.50;4372296;81;28480;-83
2021/09/16 09:17:33;;;;;;;17.15;11.25;;;;;;;26.34;90.73;98794.72;4268247;81;28441;-84
2021/09/16 09:23:41;;;;;;;18.42;11.60;;;;;;;26.51;88.86;98800.02;4326019;81;28470;-81
2021/09/16 09:29:42;;;;;;;17.77;11.57;;;;;;;26.64;90.58;98802.20;4280333;81;28494;-82
2021/09/16 09:35:46;;;;;;;18.73;11.57;;;;;;;26.76;91.77;98799.21;4299832;81;28519;-80
2021/09/16 09:41:48;;;;;;;14.93;11.57;;;;;;;26.59;95.48;98800.48;4292806;81;28484;-79
2021/09/16 09:47:49;;;;;;;16.70;11.28;;;;;;;26.56;93.10;98800.36;4279671;82;28499;-80
2021/09/16 09:53:52;;;;;;;17.12;11.75;;;;;;;26.63;100.00;98792.89;4346812;81;28471;-82
2021/09/16 10:00:05;;;;;;;16.40;12.05;;;;;;;26.63;100.00;98790.95;4351948;81;28443;-84
2021/09/16 10:06:11;;;;;;;20.50;12.53;;;;;;;26.57;100.00;98801.41;4352964;80;28506;-82
2021/09/16 10:12:12;;;;;;;16.87;12.40;;;;;;;26.57;100.00;98798.66;4354440;81;28473;-82
2021/09/16 10:18:13;;;;;;;20.35;13.45;;;;;;;26.88;97.92;98786.81;4335728;81;28479;-82
2021/09/16 10:24:17;;;;;;;21.82;13.80;;;;;;;26.99;95.41;98793.45;4322238;81;28469;-80
2021/09/16 10:30:27;;;;;;;17.50;12.85;;;;;;;27.42;95.52;98788.97;4302413;81;28471;-82
2021/09/16 10:36:30;;;;;;;21.73;14.13;;;;;;;27.65;89.37;98784.33;4323050;81;28485;-79
2021/09/16 10:42:55;;;;;;;17.00;13.35;;;;;;;27.00;89.87;98792.89;4314167;81;28434;-80
2021/09/16 10:48:59;;;;;;;20.60;13.35;;;;;;;27.14;85.92;98789.17;4326665;80;28469;-80
2021/09/16 10:55:02;;;;;;;20.35;13.53;;;;;;;27.10;83.54;98784.13;4272941;82;28460;-81
2021/09/16 11:01:03;;;;;;;18.95;13.72;;;;;;;26.93;87.36;98774.73;4249539;82;28499;-83
2021/09/16 11:07:04;;;;;;;17.15;13.08;;;;;;;27.13;85.46;98771.60;4323468;81;28487;-81
2021/09/16 11:13:40;;;;;;;21.12;13.28;;;;;;;27.41;82.84;98759.20;4374853;80;28466;-80
2021/09/16 11:19:47;;;;;;;21.07;14.33;;;;;;;27.31;84.41;98765.22;4400115;79;28425;-84
2021/09/16 11:25:51;;;;;;;18.12;13.43;;;;;;;27.62;84.64;98760.16;4442681;80;28487;-80
2021/09/16 11:32:04;;;;;;;16.55;12.18;;;;;;;27.61;81.30;98748.33;4372002;80;28519;-77
2021/09/16 11:38:07;;;;;;;18.77;12.82;;;;;;;27.69;78.76;98747.34;4419587;79;28540;-78
2021/09/16 11:44:10;;;;;;;16.12;12.35;;;;;;;27.88;81.50;98735.40;4412449;78;28581;-79
2021/09/16 11:50:28;;;;;;;13.48;10.98;;;;;;;28.13;77.58;98731.07;4352931;80;28459;-82
2021/09/16 11:56:30;;;;;;;17.40;12.63;;;;;;;28.33;76.35;98726.47;4222179;84;28544;-79
2021/09/16 12:02:47;;;;;;;14.98;11.45;;;;;;;28.07;78.71;98720.87;4282706;81;28519;-79
2021/09/16 12:08:55;;;;;;;15.88;11.25;;;;;;;28.33;78.29;98723.70;4364385;80;28490;-77
2021/09/16 12:14:58;;;;;;;15.30;10.53;;;;;;;28.50;77.63;98721.91;4349825;81;28484;-77
2021/09/16 12:20:59;;;;;;;15.18;10.78;;;;;;;28.56;77.12;98718.89;4327604;80;28473;-79
2021/09/16 12:27:00;;;;;;;13.45;10.40;;;;;;;28.35;74.55;98710.32;4357551;81;28520;-79
2021/09/16 12:33:23;;;;;;;13.62;9.93;;;;;;;28.34;76.07;98701.81;4334356;81;28487;-79
2021/09/16 12:39:28;;;;;;;15.32;10.08;;;;;;;28.52;72.04;98700.83;4339725;81;28437;-79
2021/09/16 12:45:30;;;;;;;16.23;10.53;;;;;;;28.42;71.13;98710.47;4339746;81;28593;-80
2021/09/16 12:51:36;;;;;;;14.13;11.18;;;;;;;28.22;73.34;98711.81;4340632;81;28464;-79
2021/09/16 12:57:42;;;;;;;;;;;;;;;28.28;75.08;98696.33;4303101;81;28480;-79
2021/09/16 13:04:02;;;;;;;14.63;10.15;;;;;;;28.23;73.51;98703.73;4331165;81;20196;-82
2021/09/16 13:10:24;;;;;;;11.83;9.88;;;;;;;28.43;74.52;98692.75;4307862;80;28529;-83
2021/09/16 13:16:26;;;;;;;16.97;10.53;;;;;;;28.43;72.91;98690.55;4327939;81;28506;-84
2021/09/16 13:22:27;;;;;;;12.55;9.45;;;;;;;28.15;74.78;98688.68;4334173;81;28507;-81
2021/09/16 13:28:28;;;;;;;13.55;9.83;;;;;;;28.47;75.20;98674.27;4370399;81;28508;-79
2021/09/16 13:34:32;;;;;;;11.85;9.45;;;;;;;28.43;73.28;98678.92;4257113;81;28510;-79
2021/09/16 13:40:35;;;;;;;14.23;10.32;;;;;;;28.27;74.06;98678.14;4287002;82;28501;-84
2021/09/16 13:46:38;;;;;;;15.83;10.68;;;;;;;27.83;75.81;98676.48;4318060;82;28508;-80
2021/09/16 13:52:40;;;;;;;11.43;9.80;;;;;;;27.84;78.08;98676.70;4227356;84;28526;-83
2021/09/16 13:58:41;;;;;;;15.15;10.60;;;;;;;27.96;78.23;98679.97;4212428;84;28496;-80
2021/09/16 14:04:43;;;;;;;14.40;10.38;;;;;;;28.01;77.95;98681.66;4136304;86;28504;-81
2021/09/16 14:10:46;;;;;;;16.23;11.08;;;;;;;27.95;81.11;98675.60;4135247;84;28542;-81
2021/09/16 14:16:47;;;;;;;12.85;10.00;;;;;;;27.82;84.40;98681.00;4124689;86;28553;-82
2021/09/16 14:22:49;;;;;;;15.72;11.73;;;;;;;27.80;86.87;98680.53;4324552;82;28563;-80
2021/09/16 14:28:50;;;;;;;16.52;11.08;;;;;;;27.60;90.34;98676.89;4343065;82;28490;-82
2021/09/16 14:34:51;;;;;;;16.65;10.93;;;;;;;27.66;90.07;98674.09;4341536;81;28537;-82
2021/09/16 14:40:54;;;;;;;15.45;10.70;;;;;;;27.54;94.39;98674.41;4341566;82;28510;-81
2021/09/16 14:46:55;;;;;;;17.87;11.55;;;;;;;27.44;97.45;98674.08;4310153;81;28408;-82
2021/09/16 14:52:57;;;;;;;16.07;11.30;;;;;;;27.08;100.00;98667.00;4310112;81;28438;-80
2021/09/16 14:59:01;;;;;;;17.07;11.90;;;;;;;26.99;100.00;98658.89;4375010;81;28447;-79
2021/09/16 15:05:03;;;;;;;16.65;11.40;;;;;;;26.98;100.00;98666.34;4305496;82;28488;-83
2021/09/16 15:11:04;;;;;;;16.20;10.80;;;;;;;26.74;100.00;98667.20;4401569;79;28496;-82
2021/09/16 15:17:05;;;;;;;14.60;11.20;;;;;;;26.57;100.00;98666.34;4378040;79;28467;-80
2021/09/16 15:23:10;;;;;;;15.23;11.22;;;;;;;26.48;100.00;98664.28;4386153;81;28454;-80
2021/09/16 15:29:10;;;;;;;20.10;11.28;;;;;;;26.30;100.00;98666.50;4387219;81;28561;-82
2021/09/16 15:35:12;;;;;;;18.10;11.35;;;;;;;26.18;100.00;98667.27;4399305;80;28497;-81
2021/09/16 15:41:13;;;;;;;23.00;16.57;;;;;;;26.08;100.00;98664.98;4474770;78;28568;-82
2021/09/16 15:47:14;;;;;;;14.13;10.90;;;;;;;26.27;100.00;98661.09;4397979;79;28462;-79
2021/09/16 15:53:16;;;;;;;16.77;10.85;;;;;;;26.30;100.00;98653.51;4432897;79;28442;-80
2021/09/16 15:59:17;;;;;;;15.93;10.93;;;;;;;26.18;100.00;98652.12;4419602;79;28455;-80
2021/09/16 16:05:18;;;;;;;15.98;10.82;;;;;;;25.96;100.00;98647.88;4347662;81;28560;-82
2021/09/16 16:11:20;;;;;;;16.10;10.43;;;;;;;25.93;100.00;98650.77;4376126;81;28505;-79
2021/09/16 16:17:21;;;;;;;15.20;10.88;;;;;;;25.83;100.00;98650.63;4392130;79;28508;-84
2021/09/16 16:23:23;;;;;;;15.48;10.80;;;;;;;25.74;100.00;98659.56;4399031;81;28444;-85
2021/09/16 16:29:24;;;;;;;17.10;10.82;;;;;;;25.70;100.00;98653.93;4404170;80;28507;-87
2021/09/16 16:35:26;;;;;;;16.90;10.58;;;;;;;25.53;100.00;98661.82;4453953;80;28522;-83
2021/09/16 16:41:27;;;;;;;15.65;10.82;;;;;;;25.32;100.00;98666.78;4390285;80;28502;-85
2021/09/16 16:47:29;;;;;;;13.62;10.65;;;;;;;25.19;100.00;98667.89;4393595;80;28526;-79
2021/09/16 16:53:31;;;;;;;13.83;10.15;;;;;;;25.08;100.00;98675.74;4400410;81;28452;-81
2021/09/16 16:59:32;;;;;;;15.45;10.35;;;;;;;25.12;100.00;98678.62;4452154;79;28449;-83
2021/09/16 17:05:33;;;;;;;15.43;10.25;;;;;;;25.21;100.00;98682.11;4410438;80;28555;-82
2021/09/16 17:11:36;;;;;;;15.05;10.32;;;;;;;25.12;100.00;98696.51;4330892;81;28944;-81
2021/09/16 17:17:38;;;;;;;14.18;10.48;;;;;;;24.86;100.00;98692.05;4313841;81;28508;-80
2021/09/16 17:23:42;;;;;;;13.65;10.20;;;;;;;24.81;100.00;98694.98;4316268;82;28488;-78
2021/09/16 17:29:43;;;;;;;18.15;10.95;;;;;;;25.02;100.00;98694.40;4176700;85;28495;-81
2021/09/16 17:35:45;;;;;;;16.12;9.93;;;;;;;24.84;100.00;98699.83;4200648;85;28469;-82
2021/09/16 17:41:46;;;;;;;18.40;12.88;;;;;;;24.59;100.00;98695.51;4313951;81;28489;-82
2021/09/16 17:47:48;;;;;;;17.73;13.13;;;;;;;24.21;100.00;98694.44;4334252;82;28497;-80
2021/09/16 17:53:50;;;;;;;21.70;14.13;;;;;;;24.26;100.00;98692.86;4323917;82;28539;-81
2021/09/16 17:59:53;;;;;;;20.82;14.13;;;;;;;24.56;100.00;98688.73;4344821;81;28464;-83
2021/09/16 18:05:54;;;;;;;19.70;14.60;;;;;;;24.24;100.00;98675.91;4318678;81;28557;-83
2021/09/16 18:11:57;;;;;;;19.52;14.47;;;;;;;24.14;100.00;98679.04;4339530;80;28557;-82
2021/09/16 18:17:59;;;;;;;22.00;14.93;;;;;;;24.20;100.00;98686.75;4308304;80;28485;-82
2021/09/16 18:24:00;;;;;;;22.10;15.43;;;;;;;24.31;100.00;98678.13;4312973;80;28473;-81
2021/09/16 18:30:08;;;;;;;20.57;16.10;;;;;;;24.30;100.00;98673.23;4304618;82;28480;-81
2021/09/16 18:36:09;;;;;;;21.02;15.55;;;;;;;24.22;100.00;98681.76;4400659;80;28451;-81
2021/09/16 18:42:10;;;;;;;22.05;14.65;;;;;;;24.26;100.00;98688.74;4401586;80;28484;-83
2021/09/16 18:48:14;;;;;;;24.10;16.70;;;;;;;24.03;100.00;98687.62;4292179;81;28450;-84
2021/09/16 18:54:16;;;;;;;21.00;15.38;;;;;;;24.04;100.00;98682.98;4338310;80;28480;-83
2021/09/16 19:00:19;;;;;;;23.80;14.90;;;;;;;23.98;100.00;98681.50;4280029;82;28468;-82
2021/09/16 19:06:22;;;;;;;19.20;14.03;;;;;;;23.98;100.00;98679.58;4307789;80;28503;-82
2021/09/16 19:12:25;;;;;;;19.35;14.33;;;;;;;23.81;100.00;98680.46;4345861;81;28525;-81
2021/09/16 19:18:27;;;;;;;21.42;14.65;;;;;;;23.60;100.00;98688.03;4371626;81;28452;-84
2021/09/16 19:24:30;;;;;;;21.23;14.73;;;;;;;23.57;100.00;98690.03;4397260;81;28486;-83
2021/09/16 19:30:33;;;;;;;28.20;16.35;;;;;;;23.61;100.00;98680.59;4421500;79;28490;-84
2021/09/16 19:36:39;;;;;;;27.07;17.00;;;;;;;23.25;100.00;98689.42;4379783;81;28539;-83
2021/09/16 19:42:41;;;;;;;24.83;16.73;;;;;;;23.41;100.00;98687.00;4344308;80;28469;-81
2021/09/16 19:48:43;;;;;;;27.45;17.35;;;;;;;23.43;100.00;98698.48;4354688;80;28476;-82
2021/09/16 19:54:44;;;;;;;24.90;17.32;;;;;;;23.52;100.00;98696.50;4325489;82;28536;-83
2021/09/16 20:00:47;;;;;;;28.23;17.45;;;;;;;23.47;100.00;98699.43;4366003;80;28499;-83
2021/09/16 20:06:48;;;;;;;24.30;17.02;;;;;;;23.59;100.00;98704.81;4425491;79;28663;-83
2021/09/16 20:12:50;;;;;;;22.75;16.87;;;;;;;23.56;100.00;98704.89;4332847;81;28461;-82
2021/09/16 20:18:51;;;;;;;25.00;18.07;;;;;;;23.67;100.00;98702.61;4237775;82;28500;-84
2021/09/16 20:24:53;;;;;;;26.23;18.00;;;;;;;23.76;100.00;98703.41;4220156;83;28480;-84
2021/09/16 20:30:54;;;;;;;26.45;18.30;;;;;;;23.42;100.00;98705.66;4204736;84;28510;-84
2021/09/16 20:36:56;;;;;;;25.77;17.50;;;;;;;23.06;100.00;98711.13;4204092;85;28491;-82
2021/09/16 20:42:57;;;;;;;23.05;15.90;;;;;;;23.15;100.00;98715.25;4337606;81;28449;-83
2021/09/16 20:48:59;;;;;;;23.47;15.45;;;;;;;23.11;100.00;98703.30;4296570;81;28480;-80
2021/09/16 20:55:01;;;;;;;21.12;14.53;;;;;;;23.24;100.00;98700.16;4313850;81;28481;-82
2021/09/16 21:01:03;;;;;;;22.93;15.70;;;;;;;22.99;100.00;98699.86;4320699;81;28484;-83
2021/09/16 21:07:09;;;;;;;20.92;15.43;;;;;;;23.10;100.00;98693.47;4309362;81;28630;-84
2021/09/16 21:13:12;;;;;;;23.23;15.70;;;;;;;23.14;100.00;98690.89;4344380;80;28508;-84
2021/09/16 21:19:20;;;;;;;23.52;16.00;;;;;;;22.96;100.00;98695.81;4317610;80;28499;-84
2021/09/16 21:25:16;;;;;;;24.45;16.50;;;;;;;22.91;100.00;98695.17;4329432;80;28629;-84
2021/09/16 21:31:18;;;;;;;24.00;16.75;;;;;;;22.80;100.00;98698.78;4352782;80;28496;-83
2021/09/16 21:37:20;;;;;;;22.90;15.90;;;;;;;22.59;100.00;98702.72;4337670;80;28468;-84
2021/09/16 21:43:21;;;;;;;23.77;16.35;;;;;;;22.58;100.00;98692.89;4334131;80;28469;-84
2021/09/16 21:49:22;;;;;;;22.70;15.40;;;;;;;22.60;100.00;98696.93;4336096;80;28457;-83
2021/09/16 21:55:24;;;;;;;25.12;16.35;;;;;;;22.58;100.00;98695.05;4340671;80;28476;-83
2021/09/16 22:01:25;;;;;;;25.97;16.45;;;;;;;22.42;100.00;98691.38;4342930;80;28469;-83
2021/09/16 22:07:27;;;;;;;23.60;16.23;;;;;;;22.60;100.00;98697.48;4344317;80;28598;-82
2021/09/16 22:13:28;;;;;;;25.00;16.77;;;;;;;22.55;100.00;98697.06;4301470;81;28496;-82
2021/09/16 22:19:29;;;;;;;25.45;15.45;;;;;;;22.47;100.00;98694.53;4275634;81;28476;-83
2021/09/16 22:25:31;;;;;;;22.40;14.38;;;;;;;22.53;100.00;98682.31;4296637;81;28465;-82
2021/09/16 22:31:35;;;;;;;21.35;15.10;;;;;;;22.58;100.00;98667.66;4287165;81;28475;-83
2021/09/16 22:37:37;;;;;;;22.80;14.90;;;;;;;22.66;100.00;98651.01;4283375;81;28535;-84
2021/09/16 22:43:39;;;;;;;23.20;14.70;;;;;;;22.62;100.00;98656.87;4290406;81;28562;-82
2021/09/16 22:49:43;;;;;;;19.20;13.78;;;;;;;22.60;100.00;98648.17;4299417;81;28535;-83
2021/09/16 22:55:44;;;;;;;21.40;14.40;;;;;;;22.57;100.00;98620.84;4320458;81;28446;-82
2021/09/16 23:01:45;;;;;;;24.37;14.45;;;;;;;22.38;100.00;98627.98;4305828;81;28508;-83
2021/09/16 23:07:46;;;;;;;19.48;14.40;;;;;;;22.45;100.00;98634.34;4292899;80;28509;-82
2021/09/16 23:13:48;;;;;;;19.77;13.58;;;;;;;22.44;100.00;98629.45;4359288;80;28465;-82
2021/09/16 23:19:50;;;;;;;17.95;12.58;;;;;;;22.44;100.00;98647.25;4274453;81;28507;-83
2021/09/16 23:25:52;;;;;;;20.27;13.50;;;;;;;22.62;100.00;98648.65;4304142;81;28492;-83
2021/09/16 23:31:53;;;;;;;18.82;12.88;;;;;;;22.52;100.00;98649.78;4330138;80;28459;-85
2021/09/16 23:37:55;;;;;;;17.87;12.40;;;;;;;22.87;100.00;98652.53;4383972;80;28491;-84
2021/09/16 23:43:57;;;;;;;17.57;13.00;;;;;;;22.70;100.00;98651.41;4371057;80;28481;-82
2021/09/16 23:49:58;;;;;;;18.60;12.50;;;;;;;22.61;100.00;98642.38;4394081;80;28543;-83
2021/09/16 23:55:59;;;;;;;17.07;11.88;;;;;;;22.79;100.00;98630.85;4379945;80;28498;-83
